ADDS METAR Data INFO
IDs: Format: Raw Decoded Include TAF

Data at: 1406 UTC 24 Feb 2018

KEYW 241353Z 11013KT 10SM FEW027 SCT060 26/21 A3018
KEYW 241253Z 11013KT 10SM FEW025 SCT070 24/20 A3017
KEYW 241053Z AUTO 10014KT 10SM FEW024 24/20 A3015 RMK AO2 SLP210 T02390200 $
KEYW 240953Z AUTO 10SM SCT027 BKN070 22/21 A3015 RMK AO2 RAB0856E10 SLP209 P0003 T02220211 $
KEYW 240853Z AUTO 07003KT 5SM BR 22/21 A3016 RMK AO2 RAB0756E13B29RAEMM SLP212 P0003 60003 T02220211 57014 PWINO $
KEYW 240753Z AUTO 09012KT 10SM FEW070 BKN095 23/20 A3017 RMK AO2 SLP216 T02330200 $
KEYW 240653Z AUTO 08010KT 10SM FEW022 BKN080 OVC095 23/19 A3019 RMK AO2 SLP221 T02280194 $
KEYW 240553Z AUTO 09010KT 10SM FEW047 BKN055 OVC070 23/21 A3020 RMK AO2 PK WND 11026/0516 RAB13E35 SLP226 P0000 60000 T02330206 10244 20228 58009 $
KEYW 240453Z AUTO 07010KT 10SM FEW022 SCT085 24/21 A3021 RMK AO2 SLP228 T02390206 $
KEYW 240353Z AUTO 08009KT 10SM SCT070 24/21 A3022 RMK AO2 SLP233 T02440206 $
KEYW 240253Z AUTO 08010G17KT 10SM 24/20 A3023 RMK AO2 SLP234 T02440200 $
KEYW 240153Z AUTO 07011G19KT 10SM CLR 24/20 A3023 RMK AO2 SLP235 T02440200
KEYW 240053Z 07012G20KT 10SM FEW024 SCT060 24/19 A3022 RMK AO2 SLP233 T02440194
KEYW 232353Z 08010G21KT 10SM CLR 24/19 A3021 RMK AO2 SLP230 T02440194
KEYW 232253Z 09015G22KT 10SM CLR 25/19 A3021 RMK AO2 SLP230 T02500194 $
KEYW 232153Z 10016G22KT 10SM CLR 26/19 A3021 RMK AO2 SLP228 T02610194 $
KEYW 232053Z 08016KT 10SM FEW025 27/19 A3021 RMK AO2 SLP229 T02720189 56018
KEYW 231953Z 11019KT 10SM SCT045 27/19 A3022 RMK AO2 SLP232 T02720189
KEYW 231853Z 10018KT 10SM SCT035 28/19 A3024 RMK AO2 SLP239 T02780189
KEYW 231753Z 09015KT 10SM FEW030 27/20 A3026 RMK AO2 SLP247 T02720200 58013
KEYW 231653Z 09012KT 10SM FEW030 28/20 A3029 RMK AO2 SLP256 T02780200
KEYW 231558Z 09012KT 10SM SCT030 27/19 A3030 RMK AO2 T02720189
KEYW 231553Z A3030 RMK AO2 SLP261
KEYW 231453Z 09010KT 10SM FEW025 BKN065 26/20 A3030 RMK AO2 SLP259 T02610200 52005
KEYW 231353Z 08006KT 10SM FEW020 BKN055 22/19 A3030 RMK AO2 SLP259 T02220189
KEYW 231300Z 08006KT 10SM FEW020 BKN055 22/19 A3029 RMK AO2 T02220189
KEYW 231253Z 10010KT 10SM BKN025 BKN060 23/20 A3029 RMK AO2 SLP255 T02280200
KEYW 231203Z 10010KT 10SM BKN025 BKN060 23/20 A3028 RMK AO2 T02280200
KEYW 231153Z A3028 RMK AO2 SLP255 70005 53010
KEYW 231053Z AUTO A3026 RMK AO2 SLP248 PWINO $
KEYW 230953Z AUTO A3025 RMK AO2 SLP244 PWINO $
KEYW 230853Z AUTO A3025 RMK AO2 SLP244 56007 PWINO $
KEYW 230753Z AUTO A3025 RMK AO2 SLP244 PWINO $
KEYW 230653Z AUTO A3026 RMK AO2 SLP248 PWINO $
KEYW 230553Z AUTO A3027 RMK AO2 SLP251 57010 PWINO $
KEYW 230453Z AUTO A3028 RMK AO2 SLP255 PWINO $
KEYW 230353Z AUTO A3029 RMK AO2 SLP258 PWINO $
KEYW 230253Z AUTO A3030 RMK AO2 SLP261 51014 PWINO $